Candler, North Carolina
Current Conditions -  °F | °C
As of 8:54 PM on Friday 28 Nov 2014 (Local Time) from KAVL Reporting Station
Clear Clear  
Wind Chill: 30°   Ceiling: Unl
Heat Index: 30°   Visibility: 10mi
Dew Point: 24°   Wind: 0mph
Humidity: 79%   Direction: NA
Pressure: 30.24"   Gusts: NA
Location:  35.54°N, 82.65°W
Report Text: KAVL 290154Z 00000KT 10SM CLR M01/M04 A3024 RMK AO2 SLP257 T10111044
Loading
Personal Weather Stations






























Interactive Weather Map New forecast layout! Learn more

10-Day Weather Forecast

Advertisements
Track Severe Weather on mobile